Time;durP1;ratioP1;P1;durP2;ratioP2;P2;SDS_P1;SDS_P2;PMS_P1;PMS_P2;Temp;Humidity;BMP_temperature;BMP_pressure;BME280_temperature;BME280_humidity;BME280_pressure;Samples;Min_cycle;Max_cycle;Signal;HPM_P1;HPM_P2
2022/03/01 00:00:08;;;;;;;21.45;13.93;;;;;;;3.36;90.26;102793.16;5079186;28;20052;-27
2022/03/01 00:02:44;;;;;;;22.75;13.65;;;;;;;3.38;90.34;102785.53;5086189;28;20561;-28
2022/03/01 00:05:12;;;;;;;23.75;14.65;;;;;;;3.39;90.33;102782.56;5078300;28;20060;-27
2022/03/01 00:07:40;;;;;;;21.63;12.98;;;;;;;3.43;90.51;102782.97;5086666;28;20071;-28
2022/03/01 00:10:09;;;;;;;20.88;13.75;;;;;;;3.49;89.93;102787.69;5088753;28;20041;-31
2022/03/01 00:12:37;;;;;;;22.38;14.07;;;;;;;3.54;89.88;102798.13;5083649;28;20047;-30
2022/03/01 00:15:07;;;;;;;20.80;13.90;;;;;;;3.57;90.12;102794.94;5087134;28;20476;-24
2022/03/01 00:17:35;;;;;;;20.33;14.05;;;;;;;3.62;89.67;102804.28;5084672;28;20055;-27
2022/03/01 00:20:03;;;;;;;22.65;14.75;;;;;;;3.64;89.57;102806.84;5090024;28;20044;-28
2022/03/01 00:22:33;;;;;;;21.67;13.88;;;;;;;3.67;89.12;102804.53;5085314;28;20483;-27
2022/03/01 00:25:01;;;;;;;21.15;13.68;;;;;;;3.70;89.18;102800.53;5085629;28;20060;-30
2022/03/01 00:27:29;;;;;;;22.52;13.25;;;;;;;3.70;89.18;102798.59;5085000;28;20040;-29
2022/03/01 00:29:57;;;;;;;23.92;14.18;;;;;;;3.69;90.01;102802.44;5086098;28;20074;-26
2022/03/01 00:32:26;;;;;;;23.65;14.75;;;;;;;3.72;89.33;102801.16;5085672;28;20048;-25
2022/03/01 00:34:54;;;;;;;23.50;13.77;;;;;;;3.71;89.36;102805.84;5086370;28;20051;-28
2022/03/01 00:37:21;;;;;;;19.02;12.55;;;;;;;3.74;88.79;102808.19;5079621;28;20056;-28
2022/03/01 00:39:49;;;;;;;22.48;14.27;;;;;;;3.74;88.99;102808.19;5083203;28;20061;-24
2022/03/01 00:42:17;;;;;;;22.67;13.95;;;;;;;3.69;89.30;102805.19;5078841;28;20060;-27
2022/03/01 00:44:44;;;;;;;21.17;14.13;;;;;;;3.68;89.83;102802.63;5084747;28;20051;-27
2022/03/01 00:47:12;;;;;;;28.95;13.93;;;;;;;3.66;89.90;102799.22;5078222;28;20494;-28
2022/03/01 00:49:41;;;;;;;22.25;13.70;;;;;;;3.68;89.53;102800.72;5085159;28;20041;-26
2022/03/01 00:52:09;;;;;;;21.98;13.60;;;;;;;3.69;89.54;102799.66;5077641;28;20052;-25
2022/03/01 00:54:36;;;;;;;23.67;12.88;;;;;;;3.71;89.38;102793.94;5085861;28;20100;-27
2022/03/01 00:57:06;;;;;;;23.55;13.93;;;;;;;3.69;89.79;102790.53;5078117;28;20055;-28
2022/03/01 00:59:33;;;;;;;22.02;13.85;;;;;;;3.72;89.83;102788.22;5085250;28;20290;-24
2022/03/01 01:02:01;;;;;;;21.83;13.25;;;;;;;3.73;89.97;102784.41;5078126;28;20384;-30
2022/03/01 01:04:29;;;;;;;20.25;13.43;;;;;;;3.77;89.38;102785.69;5085016;28;20079;-25
2022/03/01 01:06:58;;;;;;;22.45;14.20;;;;;;;3.81;89.24;102786.09;5078022;28;20052;-24
2022/03/01 01:09:26;;;;;;;20.75;12.82;;;;;;;3.81;89.09;102792.47;5082713;28;20057;-26
2022/03/01 01:11:53;;;;;;;22.23;13.93;;;;;;;3.84;89.38;102784.84;5080031;28;20068;-28
2022/03/01 01:14:21;;;;;;;21.77;13.57;;;;;;;3.83;89.65;102786.75;5081293;28;20048;-31
2022/03/01 01:16:49;;;;;;;20.65;13.48;;;;;;;3.85;89.91;102792.06;5079516;28;20051;-30
2022/03/01 01:19:17;;;;;;;21.45;14.02;;;;;;;3.85;89.90;102786.53;5080752;28;20083;-28
2022/03/01 01:24:31;;;;;;;23.77;13.80;;;;;;;3.83;90.83;102788.66;5084377;28;20059;-25
2022/03/01 01:26:58;;;;;;;20.75;13.10;;;;;;;3.85;90.58;102792.06;5085789;28;20045;-25
2022/03/01 01:29:26;;;;;;;21.88;14.45;;;;;;;3.85;90.97;102781.03;5084005;28;20048;-29
2022/03/01 01:31:54;;;;;;;22.65;14.15;;;;;;;3.88;90.94;102784.22;5085153;28;20139;-27
2022/03/01 01:34:22;;;;;;;21.30;13.30;;;;;;;3.91;91.21;102785.72;5084214;28;20025;-27
2022/03/01 01:36:49;;;;;;;20.48;12.88;;;;;;;3.90;91.16;102779.34;5084002;28;20044;-28
2022/03/01 01:39:17;;;;;;;21.08;13.20;;;;;;;3.92;90.97;102787.44;5085894;28;20105;-28
2022/03/01 01:41:46;;;;;;;23.10;14.55;;;;;;;3.93;90.98;102783.59;5081067;28;20517;-26
2022/03/01 01:44:14;;;;;;;21.60;14.10;;;;;;;3.94;90.70;102796.38;5087293;28;20048;-24
2022/03/01 01:46:42;;;;;;;22.48;13.50;;;;;;;3.93;90.69;102794.66;5079625;28;20097;-27
2022/03/01 01:49:10;;;;;;;22.30;14.27;;;;;;;3.92;90.97;102788.28;5086541;28;20105;-27
2022/03/01 01:51:38;;;;;;;21.73;14.02;;;;;;;3.92;91.08;102781.91;5079581;28;20048;-30
2022/03/01 01:54:06;;;;;;;21.45;13.23;;;;;;;3.91;91.28;102782.97;5086886;28;20058;-27
2022/03/01 01:56:34;;;;;;;20.42;13.55;;;;;;;3.88;91.52;102784.22;5078837;28;20052;-30
2022/03/01 01:59:03;;;;;;;22.58;14.82;;;;;;;3.88;91.47;102775.09;5086999;28;20040;-23
2022/03/01 02:01:30;;;;;;;18.90;12.52;;;;;;;3.87;91.86;102773.38;5078316;28;20041;-27
2022/03/01 02:03:59;;;;;;;23.60;14.25;;;;;;;3.87;91.71;102777.00;5087298;28;20047;-28
2022/03/01 02:06:27;;;;;;;20.60;12.32;;;;;;;3.86;91.87;102778.06;5079630;28;20051;-28
2022/03/01 02:08:55;;;;;;;21.58;13.55;;;;;;;3.85;92.14;102775.50;5084623;28;20044;-28
2022/03/01 02:11:23;;;;;;;20.70;13.63;;;;;;;3.83;92.51;102783.13;5083100;28;20167;-27
2022/03/01 02:13:50;;;;;;;22.05;13.65;;;;;;;3.80;92.87;102778.88;5087632;28;20048;-26
2022/03/01 02:16:19;;;;;;;22.42;14.52;;;;;;;3.78;93.04;102787.41;5082606;28;20414;-27
2022/03/01 02:18:49;;;;;;;20.80;13.98;;;;;;;3.80;92.78;102778.88;5077461;28;20123;-27
2022/03/01 02:21:18;;;;;;;22.00;13.43;;;;;;;3.81;93.03;102775.06;5080818;28;20144;-28
2022/03/01 02:23:46;;;;;;;20.10;12.50;;;;;;;3.81;93.01;102781.44;5077403;28;20048;-29
2022/03/01 02:26:14;;;;;;;22.00;14.15;;;;;;;3.80;93.34;102781.63;5080016;28;20048;-24
2022/03/01 02:28:41;;;;;;;22.48;14.30;;;;;;;3.81;93.32;102780.56;5078917;28;20491;-26
2022/03/01 02:31:09;;;;;;;20.20;12.90;;;;;;;3.83;93.27;102772.09;5083266;28;20044;-30
2022/03/01 02:33:37;;;;;;;20.08;13.43;;;;;;;3.84;93.38;102782.06;5082295;28;20054;-24
2022/03/01 02:36:05;;;;;;;22.48;13.48;;;;;;;3.83;93.38;102780.38;5086069;28;20055;-22
2022/03/01 02:38:34;;;;;;;18.88;13.15;;;;;;;3.84;93.44;102779.31;5079541;28;20036;-25
2022/03/01 02:41:02;;;;;;;22.98;14.57;;;;;;;3.83;93.64;102778.47;5086606;28;20449;-25
2022/03/01 02:43:30;;;;;;;19.67;14.02;;;;;;;3.85;93.91;102776.34;5078514;28;20052;-24
2022/03/01 02:45:57;;;;;;;20.77;13.85;;;;;;;3.88;93.37;102773.19;5086079;28;20414;-27
2022/03/01 02:48:25;;;;;;;21.83;13.55;;;;;;;3.91;93.64;102766.41;5078571;28;20478;-25
2022/03/01 02:50:53;;;;;;;22.55;14.45;;;;;;;3.90;93.71;102761.94;5085605;28;20055;-25
2022/03/01 02:53:20;;;;;;;24.70;15.57;;;;;;;3.93;93.41;102758.75;5078620;28;20052;-28
2022/03/01 02:55:50;;;;;;;23.02;14.65;;;;;;;3.93;93.44;102759.59;5086162;28;20122;-25
2022/03/01 02:58:17;;;;;;;20.25;14.20;;;;;;;3.95;93.48;102756.63;5078570;28;20083;-34
2022/03/01 03:00:48;;;;;;;20.00;12.57;;;;;;;3.98;93.32;102761.75;5084111;28;20040;-24
2022/03/01 03:03:15;;;;;;;21.58;13.65;;;;;;;3.98;93.41;102754.31;5080027;28;20036;-23
2022/03/01 03:05:43;;;;;;;22.67;14.02;;;;;;;4.00;93.20;102759.59;5083308;28;20067;-23
2022/03/01 03:08:11;;;;;;;22.30;14.15;;;;;;;4.02;93.11;102751.97;5081873;28;20402;-28
2022/03/01 03:10:39;;;;;;;20.67;13.27;;;;;;;4.00;93.24;102749.41;5083946;28;20486;-28
2022/03/01 03:13:08;;;;;;;19.52;13.30;;;;;;;3.98;93.51;102765.38;5084968;28;20047;-29
2022/03/01 03:15:37;;;;;;;22.02;13.77;;;;;;;3.96;93.65;102770.25;5089060;28;20048;-26
2022/03/01 03:18:05;;;;;;;21.15;13.40;;;;;;;3.94;94.04;102766.84;5086601;28;20045;-28
2022/03/01 03:20:34;;;;;;;25.02;15.48;;;;;;;3.94;94.01;102774.25;5086891;28;20422;-25
2022/03/01 03:23:01;;;;;;;23.25;14.90;;;;;;;3.91;94.24;102772.78;5082685;28;20051;-26
2022/03/01 03:25:29;;;;;;;22.80;13.57;;;;;;;3.91;94.35;102767.25;5082467;28;20056;-25
2022/03/01 03:27:57;;;;;;;20.15;13.20;;;;;;;3.91;94.29;102763.63;5081049;28;20055;-24
2022/03/01 03:30:26;;;;;;;18.92;12.75;;;;;;;3.90;94.34;102772.97;5085267;28;20037;-26
2022/03/01 03:32:54;;;;;;;19.85;13.13;;;;;;;3.89;94.38;102774.03;5077567;28;20056;-22
2022/03/01 03:35:22;;;;;;;21.02;12.90;;;;;;;3.84;94.81;102766.38;5086716;28;20048;-27
2022/03/01 03:37:50;;;;;;;23.95;13.63;;;;;;;3.83;95.08;102759.13;5079835;28;20045;-26
2022/03/01 03:40:18;;;;;;;21.30;13.68;;;;;;;3.80;95.29;102767.84;5086501;28;20040;-35
2022/03/01 03:42:46;;;;;;;20.00;12.45;;;;;;;3.77;95.53;102768.28;5080025;28;20059;-27
2022/03/01 03:45:14;;;;;;;21.02;13.27;;;;;;;3.77;95.56;102771.88;5087157;28;20401;-27
2022/03/01 03:47:44;;;;;;;21.75;13.15;;;;;;;3.75;95.67;102771.25;5078554;28;20049;-28
2022/03/01 03:50:11;;;;;;;20.75;12.98;;;;;;;3.71;96.24;102767.19;5087341;28;20044;-26
2022/03/01 03:52:40;;;;;;;21.85;14.82;;;;;;;3.64;97.64;102768.22;5079640;28;20048;-26
2022/03/01 03:55:09;;;;;;;24.17;14.85;;;;;;;3.66;97.32;102758.66;5085103;28;20490;-27
2022/03/01 03:57:38;;;;;;;21.13;14.23;;;;;;;3.66;97.22;102763.34;5079790;28;20059;-27
2022/03/01 04:00:08;;;;;;;20.33;13.45;;;;;;;3.67;97.52;102768.66;5083825;28;20052;-27
2022/03/01 04:02:36;;;;;;;23.33;14.32;;;;;;;3.63;98.43;102772.88;5080825;28;20044;-27
2022/03/01 04:05:06;;;;;;;21.85;14.80;;;;;;;3.63;98.72;102766.50;5083338;28;20044;-25
2022/03/01 04:07:35;;;;;;;22.77;15.18;;;;;;;3.62;98.68;102762.88;5081054;28;20048;-23
2022/03/01 04:10:03;;;;;;;22.70;13.85;;;;;;;3.62;98.64;102760.13;5082358;28;20063;-27
2022/03/01 04:12:31;;;;;;;20.27;14.00;;;;;;;3.62;98.93;102770.31;5079741;28;20486;-24
2022/03/01 04:15:00;;;;;;;19.38;13.43;;;;;;;3.62;99.12;102753.75;5082385;28;20056;-27
2022/03/01 04:17:28;;;;;;;24.30;14.70;;;;;;;3.64;98.87;102751.63;5081436;28;20053;-23
2022/03/01 04:19:56;;;;;;;23.77;14.90;;;;;;;3.64;99.06;102760.78;5085355;28;20052;-23
2022/03/01 04:22:25;;;;;;;23.23;13.73;;;;;;;3.66;99.08;102755.91;5085327;28;20051;-25
2022/03/01 04:24:53;;;;;;;20.58;14.02;;;;;;;3.67;99.13;102760.38;5080377;28;20075;-27
2022/03/01 04:27:21;;;;;;;22.23;13.98;;;;;;;3.67;99.49;102762.28;5083678;28;20055;-24
2022/03/01 04:29:48;;;;;;;21.20;13.88;;;;;;;3.66;99.75;102766.94;5087866;28;20126;-22
2022/03/01 04:32:16;;;;;;;21.40;13.95;;;;;;;3.65;100.00;102775.44;5081622;28;20044;-25
2022/03/01 04:34:44;;;;;;;23.02;14.80;;;;;;;3.67;100.00;102770.56;5089101;28;20445;-29
2022/03/01 04:37:12;;;;;;;23.98;14.77;;;;;;;3.66;100.00;102766.94;5079992;28;20052;-26
2022/03/01 04:39:41;;;;;;;22.77;14.20;;;;;;;3.69;100.00;102769.28;5088979;28;20048;-29
2022/03/01 04:42:09;;;;;;;20.35;13.88;;;;;;;3.72;100.00;102788.22;5080897;28;20407;-29
2022/03/01 04:44:36;;;;;;;20.67;13.60;;;;;;;3.74;100.00;102779.72;5087850;28;20040;-27
2022/03/01 04:47:05;;;;;;;20.05;13.40;;;;;;;3.75;100.00;102779.53;5080634;28;20049;-29
2022/03/01 04:49:33;;;;;;;17.30;11.93;;;;;;;3.76;100.00;102775.72;5088131;28;20048;-32
2022/03/01 04:52:01;;;;;;;22.52;15.38;;;;;;;3.78;100.00;102773.59;5081045;28;20055;-27
2022/03/01 04:54:29;;;;;;;20.88;13.52;;;;;;;3.82;100.00;102779.53;5086761;28;20059;-25
2022/03/01 04:56:58;;;;;;;23.02;14.55;;;;;;;3.85;100.00;102775.50;5081749;28;20044;-23
2022/03/01 04:59:26;;;;;;;22.83;13.45;;;;;;;3.86;100.00;102779.97;5084566;28;20040;-28
2022/03/01 05:01:54;;;;;;;21.70;13.75;;;;;;;3.88;100.00;102769.56;5082028;28;20055;-30
2022/03/01 05:04:23;;;;;;;18.45;12.60;;;;;;;3.90;100.00;102767.44;5084913;28;20102;-25
2022/03/01 05:06:51;;;;;;;19.15;13.65;;;;;;;3.92;100.00;102757.06;5084246;28;20123;-25
2022/03/01 05:09:20;;;;;;;17.05;10.90;;;;;;;3.94;100.00;102753.03;5086500;28;20154;-25
2022/03/01 05:11:49;;;;;;;15.15;10.50;;;;;;;3.98;100.00;102754.31;5088946;28;20058;-23
2022/03/01 05:14:19;;;;;;;18.42;12.50;;;;;;;4.01;100.00;102742.81;5080221;28;20190;-26
2022/03/01 05:16:47;;;;;;;19.52;13.63;;;;;;;4.03;100.00;102750.91;5085490;28;20044;-27
2022/03/01 05:19:15;;;;;;;17.20;11.20;;;;;;;4.05;100.00;102759.81;5083426;28;20060;-26
2022/03/01 05:21:43;;;;;;;17.55;12.15;;;;;;;4.08;100.00;102754.75;5086239;28;20044;-27
2022/03/01 05:24:12;;;;;;;18.42;12.82;;;;;;;4.11;100.00;102764.53;5082332;28;20090;-25
2022/03/01 05:26:40;;;;;;;18.60;12.38;;;;;;;4.13;100.00;102757.75;5087098;28;20075;-26
2022/03/01 05:29:08;;;;;;;21.02;13.57;;;;;;;4.15;100.00;102750.09;5076774;28;20055;-24
2022/03/01 05:31:37;;;;;;;18.33;11.88;;;;;;;4.19;99.87;102752.44;5077227;28;20040;-24
2022/03/01 05:34:05;;;;;;;15.38;10.90;;;;;;;4.20;99.87;102757.72;5084343;28;20562;-24
2022/03/01 05:36:32;;;;;;;21.40;12.95;;;;;;;4.23;99.79;102761.97;5077553;28;20041;-24
2022/03/01 05:39:00;;;;;;;14.27;9.50;;;;;;;4.26;100.00;102772.63;5084571;28;20051;-26
2022/03/01 05:41:28;;;;;;;11.40;7.88;;;;;;;4.30;99.99;102769.22;5075532;28;20501;-24
2022/03/01 05:43:56;;;;;;;15.07;10.77;;;;;;;4.34;100.00;102777.97;5084945;28;20048;-23
2022/03/01 05:46:28;;;;;;;16.45;10.85;;;;;;;4.36;100.00;102764.78;5076487;28;20051;-26
2022/03/01 05:48:57;;;;;;;13.45;9.32;;;;;;;4.38;100.00;102768.19;5083973;28;20044;-27
2022/03/01 05:51:25;;;;;;;18.13;11.38;;;;;;;4.39;100.00;102765.22;5077726;28;20047;-28
2022/03/01 05:53:53;;;;;;;10.65;7.72;;;;;;;4.40;100.00;102763.28;5081028;28;20040;-24
2022/03/01 05:56:21;;;;;;;15.00;9.57;;;;;;;4.41;100.00;102763.06;5079448;28;20418;-27
2022/03/01 05:58:48;;;;;;;11.07;7.95;;;;;;;4.43;100.00;102768.38;5081487;28;20048;-27
2022/03/01 06:01:16;;;;;;;11.20;7.78;;;;;;;4.46;100.00;102767.97;5077504;28;20032;-26
2022/03/01 06:03:44;;;;;;;12.93;8.63;;;;;;;4.47;100.00;102767.75;5080823;28;20062;-24
2022/03/01 06:06:14;;;;;;;14.05;9.60;;;;;;;4.49;100.00;102776.69;5078214;28;20123;-24
2022/03/01 06:08:41;;;;;;;15.45;10.20;;;;;;;4.48;100.00;102774.97;5082549;28;20048;-27
2022/03/01 06:11:09;;;;;;;14.90;10.45;;;;;;;4.50;100.00;102786.69;5084319;28;20044;-30
2022/03/01 06:13:37;;;;;;;15.30;11.00;;;;;;;4.50;100.00;102781.16;5083925;28;20051;-28
2022/03/01 06:16:06;;;;;;;18.27;11.63;;;;;;;4.52;100.00;102788.38;5082368;28;20054;-28
2022/03/01 06:18:34;;;;;;;20.45;13.38;;;;;;;4.52;100.00;102788.38;5085102;28;20059;-23
2022/03/01 06:21:02;;;;;;;15.10;10.15;;;;;;;4.50;100.00;102783.06;5080471;28;20052;-24
2022/03/01 06:23:33;;;;;;;16.13;10.60;;;;;;;4.52;100.00;102785.63;5085894;28;20058;-25
2022/03/01 06:26:00;;;;;;;13.82;8.88;;;;;;;4.52;100.00;102793.91;5084002;28;20489;-24
2022/03/01 06:28:28;;;;;;;11.05;7.75;;;;;;;4.54;100.00;102789.88;5074570;28;20411;-29
2022/03/01 06:30:56;;;;;;;11.77;8.05;;;;;;;4.55;100.00;102787.97;5082456;28;20048;-32
2022/03/01 06:33:23;;;;;;;17.27;11.68;;;;;;;4.54;100.00;102789.88;5075072;28;20068;-28
2022/03/01 06:35:51;;;;;;;20.27;13.15;;;;;;;4.52;100.00;102791.16;5081520;28;20426;-27
2022/03/01 06:38:19;;;;;;;18.15;11.05;;;;;;;4.47;100.00;102795.41;5075765;28;20510;-27
2022/03/01 06:40:51;;;;;;;18.75;12.38;;;;;;;4.46;100.00;102790.06;5083540;28;20264;-25
2022/03/01 06:43:19;;;;;;;20.00;13.93;;;;;;;4.43;100.00;102793.25;5075757;28;20550;-28
2022/03/01 06:45:47;;;;;;;20.00;13.52;;;;;;;4.41;100.00;102801.75;5079603;28;20036;-26
2022/03/01 06:48:15;;;;;;;17.58;11.85;;;;;;;4.39;100.00;102806.69;5084043;28;20048;-26
2022/03/01 06:50:42;;;;;;;22.42;14.15;;;;;;;4.36;100.00;102817.28;5080761;28;20059;-27
2022/03/01 06:53:11;;;;;;;23.58;15.48;;;;;;;4.31;100.00;102804.09;5083061;28;20051;-28
2022/03/01 06:55:39;;;;;;;20.52;14.73;;;;;;;4.29;100.00;102810.88;5081750;28;20113;-28
2022/03/01 06:58:09;;;;;;;23.63;14.95;;;;;;;4.27;100.00;102824.06;5075901;28;20052;-27
2022/03/01 07:00:37;;;;;;;19.00;13.02;;;;;;;4.26;100.00;102820.44;5078804;28;20036;-28
2022/03/01 07:03:05;;;;;;;20.35;12.20;;;;;;;4.27;100.00;102824.06;5075713;28;20045;-27
2022/03/01 07:05:34;;;;;;;18.30;11.95;;;;;;;4.27;100.00;102822.16;5078436;28;20098;-29
2022/03/01 07:08:02;;;;;;;17.02;12.52;;;;;;;4.29;100.00;102828.31;5077909;28;20569;-27
2022/03/01 07:10:29;;;;;;;16.42;11.57;;;;;;;4.28;100.00;102826.63;5077153;28;20040;-33
2022/03/01 07:12:57;;;;;;;17.73;12.05;;;;;;;4.30;100.00;102831.94;5078887;28;20053;-29
2022/03/01 07:15:26;;;;;;;18.30;13.00;;;;;;;4.28;100.00;102829.38;5074453;28;20055;-33
2022/03/01 07:17:54;;;;;;;17.73;12.60;;;;;;;4.27;100.00;102833.22;5080603;28;20422;-27
2022/03/01 07:20:22;;;;;;;19.80;13.30;;;;;;;4.26;100.00;102833.41;5072707;28;20552;-29
2022/03/01 07:22:49;;;;;;;18.25;12.32;;;;;;;4.25;100.00;102840.00;5081700;28;20056;-29
2022/03/01 07:25:17;;;;;;;19.38;13.38;;;;;;;4.21;100.00;102828.50;5074019;28;20052;-24
2022/03/01 07:27:46;;;;;;;18.30;12.00;;;;;;;4.20;100.00;102837.03;5082586;28;20529;-28
2022/03/01 07:30:14;;;;;;;18.40;12.18;;;;;;;4.20;100.00;102846.16;5074956;28;20395;-29
2022/03/01 07:32:43;;;;;;;16.52;11.77;;;;;;;4.21;100.00;102847.84;5082107;28;20051;-31
2022/03/01 07:35:11;;;;;;;21.33;14.80;;;;;;;4.19;100.00;102844.47;5074989;28;20123;-30
2022/03/01 07:37:39;;;;;;;23.50;15.13;;;;;;;4.21;100.00;102847.00;5081989;28;20051;-29
2022/03/01 07:40:10;;;;;;;20.33;13.43;;;;;;;4.20;100.00;102846.16;5073164;28;20418;-26
2022/03/01 07:42:37;;;;;;;22.70;14.23;;;;;;;4.21;100.00;102849.75;5080224;28;20048;-29
2022/03/01 07:45:07;;;;;;;21.73;13.25;;;;;;;4.21;100.00;102847.00;5075973;28;20051;-25
2022/03/01 07:47:35;;;;;;;23.77;15.68;;;;;;;4.21;100.00;102858.03;5077534;28;20055;-27
2022/03/01 07:50:05;;;;;;;19.40;12.75;;;;;;;4.19;100.00;102855.53;5082273;28;20052;-29
2022/03/01 07:52:33;;;;;;;20.83;13.90;;;;;;;4.20;100.00;102848.09;5081033;28;20399;-24
2022/03/01 07:55:01;;;;;;;19.67;13.32;;;;;;;4.22;100.00;102865.28;5080509;28;20854;-25
2022/03/01 07:57:28;;;;;;;20.27;13.70;;;;;;;4.22;100.00;102868.91;5081403;28;20158;-29
2022/03/01 07:59:56;;;;;;;19.08;12.50;;;;;;;4.24;100.00;102868.69;5085945;28;20074;-26
2022/03/01 08:02:24;;;;;;;21.55;14.35;;;;;;;4.24;100.00;102868.69;5084426;28;20055;-30
2022/03/01 08:04:52;;;;;;;20.13;13.88;;;;;;;4.24;100.00;102871.44;5085628;28;20056;-28
2022/03/01 08:07:41;;;;;;;18.02;12.63;;;;;;;4.23;100.00;102875.28;5087525;28;20063;-28
2022/03/01 08:10:09;;;;;;;19.98;12.80;;;;;;;4.22;100.00;102870.81;5085608;28;20139;-27
2022/03/01 08:12:37;;;;;;;21.92;14.32;;;;;;;4.22;100.00;102882.72;5080245;28;20040;-26
2022/03/01 08:15:06;;;;;;;17.13;12.75;;;;;;;4.22;100.00;102884.63;5081317;28;20074;-25
2022/03/01 08:17:34;;;;;;;24.33;14.63;;;;;;;4.21;100.00;102881.00;5079437;28;20052;-26
2022/03/01 08:20:01;;;;;;;22.20;15.25;;;;;;;4.20;100.00;102882.06;5081343;28;20079;-27
2022/03/01 08:22:29;;;;;;;21.25;14.48;;;;;;;4.20;100.00;102881.25;5077153;28;20407;-25
2022/03/01 08:24:58;;;;;;;23.35;16.27;;;;;;;4.21;100.00;102874.63;5085428;28;20067;-25
2022/03/01 08:27:26;;;;;;;24.08;14.77;;;;;;;4.21;100.00;102885.69;5077581;28;20056;-24
2022/03/01 08:29:53;;;;;;;23.60;14.27;;;;;;;4.21;100.00;102883.78;5085800;28;20076;-24
2022/03/01 08:32:21;;;;;;;18.90;12.50;;;;;;;4.21;100.00;102872.72;5078590;28;20487;-23
2022/03/01 08:34:49;;;;;;;21.67;14.45;;;;;;;4.24;100.00;102876.97;5086227;28;20040;-30
2022/03/01 08:37:16;;;;;;;19.48;13.52;;;;;;;4.26;100.00;102881.25;5078077;28;20479;-26
2022/03/01 08:39:44;;;;;;;23.50;15.52;;;;;;;4.31;100.00;102883.38;5086448;28;20427;-26
2022/03/01 08:42:13;;;;;;;21.50;14.93;;;;;;;4.32;100.00;102888.72;5089402;28;20052;-30
2022/03/01 08:44:41;;;;;;;19.75;13.90;;;;;;;4.34;100.00;102900.41;5082094;28;20049;-24
2022/03/01 08:47:09;;;;;;;18.77;12.38;;;;;;;4.36;100.00;102898.28;5077885;28;20101;-26
2022/03/01 08:49:37;;;;;;;20.23;13.43;;;;;;;4.40;100.00;102902.31;5079902;28;20043;-28
2022/03/01 08:52:08;;;;;;;20.20;14.40;;;;;;;4.40;100.00;102902.31;5077852;28;20048;-23
2022/03/01 08:54:36;;;;;;;22.92;15.52;;;;;;;4.42;100.00;102905.72;5082407;28;20044;-26
2022/03/01 08:57:04;;;;;;;20.90;14.30;;;;;;;4.44;100.00;102909.16;5086436;28;20062;-30
2022/03/01 08:59:33;;;;;;;23.95;15.57;;;;;;;4.44;100.00;102903.63;5084730;28;20602;-27
2022/03/01 09:02:02;;;;;;;22.35;13.18;;;;;;;4.43;100.00;102904.66;5086222;28;20269;-24
2022/03/01 09:04:30;;;;;;;24.58;16.30;;;;;;;4.44;100.00;102911.91;5084127;28;20047;-30
2022/03/01 09:06:58;;;;;;;23.67;14.30;;;;;;;4.44;100.00;102914.66;5085878;28;20052;-27
2022/03/01 09:09:26;;;;;;;20.02;12.52;;;;;;;4.48;100.00;102917.88;5084766;28;20084;-32
2022/03/01 09:11:54;;;;;;;23.48;14.60;;;;;;;4.51;100.00;102911.94;5083139;28;20130;-27
2022/03/01 09:14:22;;;;;;;21.92;14.02;;;;;;;4.52;100.00;102910.88;5086940;28;20058;-28
2022/03/01 09:16:51;;;;;;;20.25;13.10;;;;;;;4.51;100.00;102909.16;5081222;28;20052;-28
2022/03/01 09:19:18;;;;;;;21.05;15.05;;;;;;;4.54;100.00;102907.91;5087334;28;20048;-26
2022/03/01 09:21:46;;;;;;;21.33;13.73;;;;;;;4.57;100.00;102904.72;5080439;28;20075;-29
2022/03/01 09:24:14;;;;;;;18.50;12.82;;;;;;;4.57;100.00;102908.34;5085906;28;20063;-29
2022/03/01 09:26:42;;;;;;;18.40;13.27;;;;;;;4.60;100.00;102909.81;5076797;28;20067;-30
2022/03/01 09:29:15;;;;;;;25.35;16.30;;;;;;;4.63;100.00;102909.41;5087807;28;20044;-25
2022/03/01 09:31:43;;;;;;;19.17;12.95;;;;;;;4.64;100.00;102908.34;5079349;28;20409;-31
2022/03/01 09:34:12;;;;;;;24.55;16.23;;;;;;;4.65;100.00;102904.50;5087654;28;20040;-25
2022/03/01 09:36:41;;;;;;;28.52;17.95;;;;;;;4.63;100.00;102907.47;5079914;28;20495;-29
2022/03/01 09:39:08;;;;;;;22.80;16.27;;;;;;;4.64;100.00;102916.63;5086560;28;20036;-28
2022/03/01 09:41:37;;;;;;;24.25;16.25;;;;;;;4.61;100.00;102917.91;5081755;28;20158;-30
2022/03/01 09:44:05;;;;;;;24.35;16.48;;;;;;;4.59;100.00;102913.66;5085502;28;20572;-25
2022/03/01 09:46:35;;;;;;;23.40;15.82;;;;;;;4.58;100.00;102921.13;5082789;28;20048;-29
2022/03/01 09:49:05;;;;;;;21.75;14.93;;;;;;;4.59;100.00;102922.81;5085082;28;20454;-32
2022/03/01 09:51:39;;;;;;;23.98;16.73;;;;;;;4.60;100.00;102920.88;5081367;28;20035;-29
2022/03/01 09:54:07;;;;;;;27.85;16.48;;;;;;;4.57;100.00;102924.94;5078884;28;20040;-25
2022/03/01 09:56:36;;;;;;;20.98;15.02;;;;;;;4.59;100.00;102924.72;5080100;28;20051;-27
2022/03/01 09:59:04;;;;;;;24.83;16.48;;;;;;;4.61;100.00;102923.44;5077896;28;20036;-30
2022/03/01 10:01:32;;;;;;;23.67;16.83;;;;;;;4.63;100.00;102934.28;5080697;28;20144;-27
2022/03/01 10:04:10;;;;;;;27.48;16.15;;;;;;;4.63;100.00;102928.75;5078958;28;20076;-28
2022/03/01 10:06:44;;;;;;;29.02;17.27;;;;;;;4.60;100.00;102934.69;5082642;28;20073;-26
2022/03/01 10:09:14;;;;;;;23.70;15.98;;;;;;;4.61;100.00;102936.41;5084585;28;20074;-30
2022/03/01 10:11:42;;;;;;;23.10;15.00;;;;;;;4.64;100.00;102930.47;5080452;28;20060;-26
2022/03/01 10:14:10;;;;;;;25.73;17.08;;;;;;;4.65;100.00;102933.00;5078938;28;20135;-24
2022/03/01 10:16:42;;;;;;;26.33;16.80;;;;;;;4.68;100.00;102942.81;5084221;28;20995;-29
2022/03/01 10:19:15;;;;;;;24.80;16.13;;;;;;;4.69;100.00;102939.84;5081103;28;20044;-25
2022/03/01 10:21:47;;;;;;;24.00;17.42;;;;;;;4.72;100.00;102944.09;5083519;28;20075;-29
2022/03/01 10:24:20;;;;;;;26.02;17.35;;;;;;;4.73;100.00;102935.59;5080806;28;20040;-30
2022/03/01 10:26:50;;;;;;;26.30;16.20;;;;;;;4.74;100.00;102936.47;5084171;28;20087;-28
2022/03/01 10:29:45;;;;;;;26.58;16.92;;;;;;;4.73;100.00;102938.38;5081872;28;20043;-26
2022/03/01 10:32:13;;;;;;;26.27;18.55;;;;;;;4.74;100.00;102939.22;5083541;28;20094;-28
2022/03/01 10:35:00;;;;;;;25.73;17.70;;;;;;;4.77;100.00;102942.41;5081814;28;20048;-23
2022/03/01 10:37:30;;;;;;;21.40;14.27;;;;;;;4.80;100.00;102941.97;5083255;28;20040;-26
2022/03/01 10:40:21;;;;;;;25.13;16.25;;;;;;;4.85;100.00;102936.66;5082169;28;20052;-24
2022/03/01 10:43:00;;;;;;;28.38;18.42;;;;;;;4.88;100.00;102931.78;5081213;28;20050;-27
2022/03/01 10:45:36;;;;;;;24.10;15.93;;;;;;;4.91;100.00;102932.22;5083780;28;20036;-25
2022/03/01 10:48:05;;;;;;;23.67;15.70;;;;;;;4.93;100.00;102924.56;5081740;28;20461;-26
2022/03/01 10:50:33;;;;;;;27.15;18.30;;;;;;;4.96;100.00;102934.38;5082241;28;20497;-26
2022/03/01 10:53:02;;;;;;;25.52;16.40;;;;;;;5.00;100.00;102930.09;5078213;28;20048;-27
2022/03/01 10:55:32;;;;;;;22.40;15.52;;;;;;;5.05;100.00;102930.31;5078432;28;20055;-27
2022/03/01 10:58:06;;;;;;;23.75;16.17;;;;;;;5.12;100.00;102934.81;5077146;28;20056;-32
2022/03/01 11:00:36;;;;;;;22.25;14.32;;;;;;;5.20;100.00;102929.03;5080269;28;20128;-29
2022/03/01 11:03:05;;;;;;;21.92;16.13;;;;;;;5.31;100.00;102921.16;5076632;28;20072;-26
2022/03/01 11:05:34;;;;;;;21.55;15.70;;;;;;;5.37;100.00;102934.16;5086977;28;20054;-29
2022/03/01 11:08:26;;;;;;;24.45;15.77;;;;;;;5.39;100.00;102935.66;5083675;28;20055;-32
2022/03/01 11:10:54;;;;;;;;;;;;;;;5.41;100.00;102927.09;5082379;28;20558;-29
2022/03/01 11:13:25;;;;;;;20.67;13.55;;;;;;;5.43;100.00;102930.50;5085117;28;19967;-25
2022/03/01 11:16:18;;;;;;;24.02;14.38;;;;;;;5.56;100.00;102925.00;5080391;28;20048;-29
2022/03/01 11:18:53;;;;;;;24.13;16.60;;;;;;;5.65;100.00;102922.81;5083537;28;20360;-29
2022/03/01 11:21:22;;;;;;;20.08;13.65;;;;;;;5.73;100.00;102928.16;5083117;28;20044;-24
2022/03/01 11:23:54;;;;;;;19.77;14.35;;;;;;;5.84;100.00;102925.53;5083520;28;20047;-27